Time;durP1;ratioP1;P1;durP2;ratioP2;P2;SDS_P1;SDS_P2;PMS_P1;PMS_P2;Temp;Humidity;BMP_temperature;BMP_pressure;BME280_temperature;BME280_humidity;BME280_pressure;Samples;Min_cycle;Max_cycle;Signal;HPM_P1;HPM_P2
2022/09/25 00:01:00;;;;;;;48.08;33.75;;;10.30;99.90;;;;;;5082019;28;20109;-72
2022/09/25 00:03:30;;;;;;;47.83;32.05;;;10.30;99.90;;;;;;5076837;28;20093;-73
2022/09/25 00:06:06;;;;;;;51.55;31.30;;;10.30;99.90;;;;;;5100483;28;20066;-73
2022/09/25 00:08:35;;;;;;;52.60;33.20;;;10.20;99.90;;;;;;5081709;28;20102;-73
2022/09/25 00:11:06;;;;;;;53.17;34.05;;;10.10;99.90;;;;;;5082435;28;20044;-73
2022/09/25 00:13:34;;;;;;;50.03;32.97;;;10.10;99.90;;;;;;5100969;28;20048;-73
2022/09/25 00:16:03;;;;;;;47.60;31.13;;;10.00;99.90;;;;;;5099744;28;20032;-72
2022/09/25 00:21:16;;;;;;;39.95;27.65;;;10.00;99.90;;;;;;5093795;28;20411;-73
2022/09/25 00:23:47;;;;;;;42.65;29.27;;;10.00;99.90;;;;;;5076508;28;20422;-73
2022/09/25 00:26:16;;;;;;;36.70;25.85;;;10.00;99.90;;;;;;5076573;28;20047;-74
2022/09/25 00:28:44;;;;;;;39.90;25.58;;;9.90;99.90;;;;;;5095267;28;20044;-72
2022/09/25 00:31:18;;;;;;;38.95;24.10;;;9.90;99.90;;;;;;5095165;28;20040;-73
2022/09/25 00:33:45;;;;;;;35.20;22.52;;;9.90;99.90;;;;;;5094229;28;20036;-73
2022/09/25 00:36:13;;;;;;;37.88;23.55;;;9.90;99.90;;;;;;5075116;28;20056;-72
2022/09/25 00:38:40;;;;;;;35.22;24.27;;;9.90;99.90;;;;;;5092597;28;20065;-72
2022/09/25 00:41:09;;;;;;;38.47;25.17;;;9.90;99.90;;;;;;5094674;28;20380;-72
2022/09/25 00:43:39;;;;;;;32.47;22.60;;;9.90;99.90;;;;;;5076066;28;20044;-73
2022/09/25 00:46:11;;;;;;;36.67;26.25;;;9.90;99.90;;;;;;5076600;28;20067;-72
2022/09/25 00:48:43;;;;;;;40.85;23.40;;;9.90;99.90;;;;;;5093953;28;20051;-74
2022/09/25 00:51:11;;;;;;;30.75;22.27;;;9.90;99.90;;;;;;5056279;28;20480;-72
2022/09/25 00:53:41;;;;;;;35.50;22.52;;;9.90;99.90;;;;;;5074092;28;20040;-73
2022/09/25 00:56:13;;;;;;;38.25;24.77;;;9.90;99.90;;;;;;5056449;28;20048;-72
2022/09/25 00:58:41;;;;;;;39.60;27.92;;;9.80;99.90;;;;;;5074574;28;20476;-73
2022/09/25 01:01:09;;;;;;;55.17;36.67;;;9.80;99.90;;;;;;5073699;28;20049;-73
2022/09/25 01:03:37;;;;;;;42.28;28.60;;;9.80;99.90;;;;;;5089075;28;20415;-73
2022/09/25 01:06:05;;;;;;;38.95;25.48;;;9.70;99.90;;;;;;5092648;28;20043;-74
2022/09/25 01:08:33;;;;;;;35.92;25.27;;;9.70;99.90;;;;;;5075940;28;20499;-72
2022/09/25 01:11:00;;;;;;;38.25;24.33;;;9.70;99.90;;;;;;5094530;28;20070;-72
2022/09/25 01:13:29;;;;;;;38.35;25.73;;;9.60;99.90;;;;;;5086052;28;20055;-72
2022/09/25 01:16:04;;;;;;;31.52;22.15;;;9.60;99.90;;;;;;5093917;28;20113;-73
2022/09/25 01:18:51;;;;;;;35.15;24.67;;;9.50;99.90;;;;;;5075866;28;20506;-72
2022/09/25 01:21:33;;;;;;;31.13;21.63;;;9.40;99.90;;;;;;5099142;28;20044;-72
2022/09/25 01:24:49;;;;;;;34.28;22.75;;;9.30;99.90;;;;;;5105803;28;20059;-72
2022/09/25 01:27:40;;;;;;;26.13;16.63;;;9.20;99.90;;;;;;5085660;28;20048;-72
2022/09/25 01:30:12;;;;;;;22.70;16.30;;;9.20;99.90;;;;;;5097907;28;20545;-72
2022/09/25 01:32:50;;;;;;;22.98;15.77;;;9.10;99.90;;;;;;5085699;28;20044;-72
2022/09/25 01:35:30;;;;;;;26.08;16.63;;;9.10;99.90;;;;;;5102561;28;20048;-72
2022/09/25 01:38:01;;;;;;;24.30;16.67;;;9.20;99.90;;;;;;5086765;28;20040;-72
2022/09/25 01:40:33;;;;;;;23.42;16.55;;;9.00;99.90;;;;;;5097012;28;20501;-72
2022/09/25 01:43:08;;;;;;;26.17;17.50;;;9.10;99.90;;;;;;5098439;28;20510;-71
2022/09/25 01:45:43;;;;;;;24.45;16.73;;;9.10;99.90;;;;;;5077490;28;20127;-71
2022/09/25 01:48:13;;;;;;;28.60;17.33;;;9.00;99.90;;;;;;5094185;28;20040;-72
2022/09/25 01:50:45;;;;;;;27.30;17.65;;;8.90;99.90;;;;;;5076178;28;20044;-71
2022/09/25 01:53:18;;;;;;;25.20;17.30;;;8.90;99.90;;;;;;5093500;28;20040;-71
2022/09/25 01:55:48;;;;;;;25.23;17.10;;;8.80;99.90;;;;;;5076107;28;20568;-72
2022/09/25 01:58:20;;;;;;;27.60;16.70;;;8.80;99.90;;;;;;5105297;28;20032;-74
2022/09/25 02:00:54;;;;;;;22.70;16.60;;;8.80;99.90;;;;;;5092894;28;20060;-72
2022/09/25 02:03:29;;;;;;;26.20;16.85;;;8.80;99.90;;;;;;5109801;28;20058;-72
2022/09/25 02:06:01;;;;;;;29.30;18.50;;;8.80;99.90;;;;;;5094666;28;20045;-71
2022/09/25 02:08:35;;;;;;;29.15;19.30;;;8.80;99.90;;;;;;5102878;28;20493;-72
2022/09/25 02:11:07;;;;;;;26.27;18.90;;;8.70;99.90;;;;;;5094157;28;20048;-72
2022/09/25 02:13:40;;;;;;;24.35;15.77;;;8.70;99.90;;;;;;5078964;28;20090;-72
2022/09/25 02:16:12;;;;;;;22.92;15.18;;;8.70;99.90;;;;;;5097391;28;20044;-72
2022/09/25 02:21:35;;;;;;;20.55;14.32;;;8.80;99.90;;;;;;5097618;28;20075;-72
2022/09/25 02:24:14;;;;;;;18.75;10.88;;;8.70;99.90;;;;;;5097019;28;20463;-72
2022/09/25 02:26:41;;;;;;;16.35;10.48;;;8.70;99.90;;;;;;5096719;28;20055;-72
2022/09/25 02:29:09;;;;;;;16.63;10.63;;;8.70;99.90;;;;;;5100382;28;20044;-72
2022/09/25 02:31:42;;;;;;;17.13;11.48;;;8.70;99.90;;;;;;5101216;28;20093;-72
2022/09/25 02:34:11;;;;;;;20.50;13.40;;;8.60;99.90;;;;;;5099720;28;20047;-71
2022/09/25 02:36:38;;;;;;;22.65;14.45;;;8.60;99.90;;;;;;5096759;28;20044;-72
2022/09/25 02:39:08;;;;;;;22.02;13.80;;;8.60;99.90;;;;;;5097513;28;20039;-73
2022/09/25 02:41:50;;;;;;;21.13;15.45;;;8.60;99.90;;;;;;5078148;28;20052;-72
2022/09/25 02:44:27;;;;;;;26.65;17.52;;;8.50;99.90;;;;;;5078934;28;20052;-72
2022/09/25 02:47:11;;;;;;;28.58;17.50;;;8.40;99.90;;;;;;5097147;28;20044;-73
2022/09/25 02:49:44;;;;;;;24.08;16.05;;;8.40;99.90;;;;;;5078986;28;20051;-72
2022/09/25 02:52:19;;;;;;;24.27;15.52;;;8.40;99.90;;;;;;5078547;28;20080;-73
2022/09/25 02:54:52;;;;;;;20.48;14.60;;;8.40;99.90;;;;;;5097571;28;20093;-72
2022/09/25 02:57:29;;;;;;;26.08;14.32;;;8.40;99.90;;;;;;5079709;28;20044;-73
2022/09/25 03:00:01;;;;;;;19.00;12.63;;;8.40;99.90;;;;;;5096245;28;20055;-72
2022/09/25 03:02:33;;;;;;;19.13;12.55;;;8.40;99.90;;;;;;5095878;28;20119;-74
2022/09/25 03:05:02;;;;;;;18.58;12.90;;;8.40;99.90;;;;;;5096665;28;20447;-72
2022/09/25 03:08:36;;;;;;;25.30;15.02;;;8.40;99.90;;;;;;5078577;28;20068;-72
2022/09/25 03:10:17;;;;;;;27.23;16.88;;;8.40;99.90;;;;;;5095700;28;20051;-72
2022/09/25 03:12:44;;;;;;;25.45;14.82;;;8.40;99.90;;;;;;5095925;28;20111;-72
2022/09/25 03:15:13;;;;;;;22.40;15.05;;;8.40;99.90;;;;;;5095942;28;20052;-72
2022/09/25 03:17:42;;;;;;;20.67;14.50;;;8.40;99.90;;;;;;5095921;28;20035;-73
2022/09/25 03:20:10;;;;;;;25.67;17.13;;;8.30;99.90;;;;;;5095555;28;20476;-72
2022/09/25 03:22:37;;;;;;;23.13;15.13;;;8.40;99.90;;;;;;5093049;28;20507;-72
2022/09/25 03:25:05;;;;;;;21.25;14.63;;;8.40;99.90;;;;;;5095162;28;20472;-72
2022/09/25 03:27:33;;;;;;;18.90;13.02;;;8.30;99.90;;;;;;5095697;28;20039;-72
2022/09/25 03:30:01;;;;;;;22.77;13.07;;;8.30;99.90;;;;;;5077993;28;20047;-72
2022/09/25 03:32:28;;;;;;;18.30;12.07;;;8.30;99.90;;;;;;5077507;28;20376;-72
2022/09/25 03:34:57;;;;;;;18.13;12.32;;;8.30;99.90;;;;;;5078103;28;20052;-71
2022/09/25 03:37:25;;;;;;;24.02;13.55;;;8.30;99.90;;;;;;5077108;28;20040;-72
2022/09/25 03:39:52;;;;;;;18.95;12.85;;;8.40;99.90;;;;;;5095635;28;20071;-72
2022/09/25 03:42:19;;;;;;;20.55;13.27;;;8.40;99.90;;;;;;5094656;28;20044;-72
2022/09/25 03:44:47;;;;;;;21.25;13.27;;;8.40;99.90;;;;;;5082797;28;20407;-72
2022/09/25 03:47:14;;;;;;;23.73;12.57;;;8.50;99.90;;;;;;5076781;28;20045;-72
2022/09/25 03:49:41;;;;;;;20.38;12.80;;;8.60;99.90;;;;;;5076382;28;20388;-73
2022/09/25 03:52:11;;;;;;;18.23;11.88;;;8.50;99.90;;;;;;5082165;28;20071;-72
2022/09/25 03:54:38;;;;;;;18.60;11.93;;;8.60;99.90;;;;;;5097036;28;20047;-72
2022/09/25 03:57:06;;;;;;;17.60;11.73;;;8.60;99.90;;;;;;5094450;28;20117;-72
2022/09/25 03:59:34;;;;;;;18.98;12.48;;;8.70;99.90;;;;;;5095420;28;20060;-72
2022/09/25 04:02:01;;;;;;;19.15;12.40;;;8.70;99.90;;;;;;5085787;28;20065;-74
2022/09/25 04:04:29;;;;;;;19.75;12.50;;;8.70;99.90;;;;;;5082402;28;20040;-74
2022/09/25 04:06:56;;;;;;;19.98;13.02;;;8.70;99.90;;;;;;5065213;28;20487;-74
2022/09/25 04:09:25;;;;;;;18.40;10.73;;;8.70;99.90;;;;;;5076051;28;20110;-74
2022/09/25 04:11:54;;;;;;;19.17;11.73;;;8.70;99.90;;;;;;5075571;28;20040;-74
2022/09/25 04:14:22;;;;;;;19.05;11.93;;;8.80;99.90;;;;;;5057154;28;20052;-75
2022/09/25 04:16:50;;;;;;;17.85;12.20;;;8.80;99.90;;;;;;5056667;28;20044;-74
2022/09/25 04:19:18;;;;;;;21.02;11.95;;;8.80;99.90;;;;;;5095037;28;20542;-74
2022/09/25 04:21:45;;;;;;;19.80;12.18;;;8.80;99.90;;;;;;5070824;28;20053;-74
2022/09/25 04:26:58;;;;;;;61.72;27.23;;;9.00;99.90;;;;;;5060355;28;20423;-74
2022/09/25 04:29:25;;;;;;;54.97;24.20;;;9.00;99.90;;;;;;5056263;28;20048;-74
2022/09/25 04:34:33;;;;;;;18.65;11.73;;;9.10;99.90;;;;;;5093079;28;20491;-74
2022/09/25 04:37:01;;;;;;;21.00;11.25;;;9.10;99.90;;;;;;5094629;28;20055;-74
2022/09/25 04:39:28;;;;;;;20.75;12.80;;;9.10;99.90;;;;;;5094498;28;20066;-73
2022/09/25 04:41:57;;;;;;;17.77;12.27;;;9.20;99.90;;;;;;5062040;28;20048;-73
2022/09/25 04:44:25;;;;;;;20.38;12.60;;;9.20;99.90;;;;;;5084701;28;20047;-74
2022/09/25 04:46:52;;;;;;;18.20;11.65;;;9.20;99.90;;;;;;5094657;28;20119;-73
2022/09/25 04:49:20;;;;;;;17.75;11.38;;;9.20;99.90;;;;;;5094515;28;20502;-73
2022/09/25 04:51:47;;;;;;;17.50;10.68;;;9.20;99.90;;;;;;5094377;28;20044;-74
2022/09/25 04:54:16;;;;;;;18.27;12.75;;;9.20;99.90;;;;;;5093455;28;20047;-74
2022/09/25 04:56:43;;;;;;;16.60;12.05;;;9.20;99.90;;;;;;5076077;28;20048;-73
2022/09/25 04:59:12;;;;;;;18.85;12.05;;;9.30;99.90;;;;;;5093786;28;20040;-74
2022/09/25 05:01:39;;;;;;;18.55;12.55;;;9.30;99.90;;;;;;5093566;28;20118;-74
2022/09/25 05:04:06;;;;;;;20.25;12.15;;;9.40;99.90;;;;;;5093574;28;20387;-73
2022/09/25 05:06:34;;;;;;;20.60;11.88;;;9.40;99.90;;;;;;5075409;28;20040;-74
2022/09/25 05:09:02;;;;;;;46.72;13.63;;;9.50;99.90;;;;;;5075342;28;20055;-74
2022/09/25 05:11:29;;;;;;;18.42;10.18;;;9.50;99.90;;;;;;5093015;28;20043;-74
2022/09/25 05:13:57;;;;;;;22.50;12.75;;;9.60;99.90;;;;;;5092683;28;20081;-73
2022/09/25 05:16:27;;;;;;;22.50;14.55;;;9.60;99.90;;;;;;5093330;28;20510;-73
2022/09/25 05:18:55;;;;;;;18.80;12.73;;;9.70;99.90;;;;;;5092506;28;20036;-74
2022/09/25 05:21:23;;;;;;;17.75;10.90;;;9.80;99.90;;;;;;5074712;28;20068;-74
2022/09/25 05:23:50;;;;;;;17.55;11.98;;;9.80;99.90;;;;;;5092635;28;20078;-75
2022/09/25 05:26:17;;;;;;;16.30;12.07;;;9.90;99.90;;;;;;5092324;28;20063;-74
2022/09/25 05:28:48;;;;;;;20.15;13.07;;;10.10;99.90;;;;;;5069019;28;20082;-74
2022/09/25 05:31:17;;;;;;;19.98;12.93;;;10.20;99.90;;;;;;5073168;28;20082;-74
2022/09/25 05:33:45;;;;;;;17.95;12.13;;;10.30;99.90;;;;;;5074405;28;20147;-74
2022/09/25 05:36:13;;;;;;;22.30;13.27;;;10.40;99.90;;;;;;5093482;28;20451;-73
2022/09/25 05:38:41;;;;;;;20.40;12.50;;;10.60;99.90;;;;;;5092559;28;20040;-73
2022/09/25 05:41:09;;;;;;;25.92;13.52;;;10.70;99.90;;;;;;5092666;28;20052;-74
2022/09/25 05:43:40;;;;;;;19.88;12.68;;;10.80;99.90;;;;;;5091214;28;20491;-74
2022/09/25 05:46:07;;;;;;;19.10;13.02;;;11.00;99.90;;;;;;5093246;28;20051;-74
2022/09/25 05:48:35;;;;;;;16.63;11.82;;;11.40;99.90;;;;;;5096461;28;20127;-74
2022/09/25 05:51:04;;;;;;;18.02;11.13;;;11.80;99.90;;;;;;5096710;28;20097;-73
2022/09/25 05:53:32;;;;;;;17.38;10.80;;;12.20;99.90;;;;;;5080173;28;20048;-75
2022/09/25 05:56:00;;;;;;;15.23;11.90;;;12.50;99.90;;;;;;5098873;28;20043;-74
2022/09/25 05:58:30;;;;;;;16.52;11.85;;;12.80;99.90;;;;;;5095725;28;20068;-74
2022/09/25 06:01:02;;;;;;;17.05;11.80;;;12.90;99.90;;;;;;5052539;28;1292876;-73
2022/09/25 06:03:29;;;;;;;17.48;12.98;;;13.00;99.90;;;;;;5097842;28;20048;-73
2022/09/25 06:05:57;;;;;;;17.42;13.32;;;13.00;99.90;;;;;;5097606;28;20044;-74
2022/09/25 06:08:29;;;;;;;20.40;12.48;;;12.90;99.90;;;;;;5097110;28;20044;-73
2022/09/25 06:10:57;;;;;;;19.63;13.93;;;13.10;99.90;;;;;;5098279;28;20447;-74
2022/09/25 06:13:25;;;;;;;18.40;13.07;;;13.30;99.90;;;;;;5096455;28;20044;-74
2022/09/25 06:15:53;;;;;;;21.55;12.77;;;13.40;99.90;;;;;;5097039;28;20072;-73
2022/09/25 06:18:21;;;;;;;19.33;11.38;;;13.60;99.90;;;;;;5078860;28;20137;-74
2022/09/25 06:20:50;;;;;;;19.70;11.85;;;13.80;99.90;;;;;;5097448;28;20040;-72
2022/09/25 06:23:18;;;;;;;19.83;12.20;;;13.90;99.90;;;;;;5097474;28;20047;-74
2022/09/25 06:25:46;;;;;;;19.80;12.50;;;13.90;99.90;;;;;;5097542;28;20047;-73
2022/09/25 06:28:14;;;;;;;17.35;12.82;;;14.00;99.90;;;;;;5097220;28;20051;-73
2022/09/25 06:30:41;;;;;;;20.63;13.13;;;14.20;99.90;;;;;;5097085;28;20040;-73
2022/09/25 06:33:13;;;;;;;21.58;13.52;;;14.30;99.90;;;;;;5096718;28;20398;-74
2022/09/25 06:35:42;;;;;;;19.70;13.40;;;14.60;99.90;;;;;;5097607;28;20044;-74
2022/09/25 06:38:10;;;;;;;19.88;13.75;;;14.70;99.90;;;;;;5096982;28;20422;-73
2022/09/25 06:40:39;;;;;;;19.23;12.70;;;14.80;99.90;;;;;;5097594;28;20132;-74
2022/09/25 06:43:10;;;;;;;16.65;11.38;;;14.90;99.90;;;;;;5096155;28;20044;-74
2022/09/25 06:45:38;;;;;;;16.85;11.45;;;15.10;99.90;;;;;;5090198;28;20051;-74
2022/09/25 06:48:08;;;;;;;20.58;14.52;;;15.40;99.90;;;;;;5095411;28;20086;-73
2022/09/25 06:50:40;;;;;;;19.00;13.65;;;15.70;99.90;;;;;;5097349;28;20044;-74
2022/09/25 06:53:07;;;;;;;18.30;13.68;;;15.80;99.90;;;;;;5100368;28;20434;-74
2022/09/25 06:55:35;;;;;;;21.15;14.57;;;16.20;99.90;;;;;;5081349;28;20052;-74
2022/09/25 06:58:03;;;;;;;24.73;15.15;;;16.40;99.90;;;;;;5098103;28;20100;-74
2022/09/25 07:00:32;;;;;;;21.63;15.88;;;16.60;99.90;;;;;;5097889;28;20540;-74
2022/09/25 07:05:46;;;;;;;23.17;16.33;;;16.20;99.90;;;;;;5076551;28;20491;-74
2022/09/25 07:08:16;;;;;;;25.13;16.40;;;16.40;99.90;;;;;;5078223;28;20116;-74
2022/09/25 07:10:49;;;;;;;22.60;14.70;;;16.50;99.90;;;;;;5079999;28;20060;-74
2022/09/25 07:13:16;;;;;;;17.50;12.70;;;16.70;99.90;;;;;;5077384;28;20123;-74
2022/09/25 07:15:51;;;;;;;19.30;13.43;;;16.90;99.90;;;;;;5089190;28;20056;-74
2022/09/25 07:18:18;;;;;;;19.80;14.33;;;17.10;99.90;;;;;;5068312;28;20040;-73
2022/09/25 07:20:46;;;;;;;20.73;13.27;;;17.10;99.90;;;;;;5088331;28;20040;-75
2022/09/25 07:23:14;;;;;;;25.50;14.85;;;17.30;99.90;;;;;;5070898;28;20040;-73
2022/09/25 07:25:41;;;;;;;23.33;14.90;;;17.30;99.90;;;;;;5064170;28;20043;-74
2022/09/25 07:28:13;;;;;;;17.33;12.77;;;17.40;99.90;;;;;;5083711;28;20039;-73
2022/09/25 07:30:40;;;;;;;18.38;13.73;;;17.50;99.90;;;;;;5079437;28;20114;-73
2022/09/25 07:33:09;;;;;;;26.05;16.83;;;17.60;99.90;;;;;;5061064;28;20098;-73
2022/09/25 07:35:38;;;;;;;27.15;15.77;;;17.60;99.90;;;;;;5072618;28;20032;-73
2022/09/25 07:38:07;;;;;;;32.17;15.80;;;17.60;99.90;;;;;;5079111;28;20044;-73
2022/09/25 07:40:34;;;;;;;28.73;15.18;;;17.80;99.90;;;;;;5061056;28;20058;-73
2022/09/25 07:43:03;;;;;;;18.42;13.32;;;17.90;99.90;;;;;;5086752;28;20036;-74
2022/09/25 07:45:31;;;;;;;24.55;14.75;;;18.00;99.90;;;;;;5070893;28;20044;-74
2022/09/25 07:47:59;;;;;;;20.92;15.77;;;18.20;99.90;;;;;;5067255;28;20125;-77
2022/09/25 07:50:28;;;;;;;20.13;15.63;;;18.50;99.90;;;;;;5089899;28;20066;-82
2022/09/25 07:52:56;;;;;;;23.27;15.85;;;18.60;99.90;;;;;;5092029;28;20039;-72
2022/09/25 07:55:23;;;;;;;50.35;19.55;;;18.50;99.90;;;;;;5089594;28;20047;-78
2022/09/25 07:57:50;;;;;;;22.33;16.60;;;18.70;99.90;;;;;;5073437;28;20048;-72
2022/09/25 08:00:18;;;;;;;24.35;17.23;;;18.70;99.90;;;;;;5093713;28;20052;-68
2022/09/25 08:02:54;;;;;;;24.63;16.40;;;18.80;99.90;;;;;;5093672;28;20043;-75
2022/09/25 08:05:22;;;;;;;26.05;18.98;;;19.00;99.90;;;;;;5077656;28;20071;-73
2022/09/25 08:07:51;;;;;;;22.10;16.40;;;18.90;99.90;;;;;;5095297;28;20548;-69
2022/09/25 08:10:18;;;;;;;22.33;16.38;;;19.00;99.90;;;;;;5093426;28;20047;-69
2022/09/25 08:12:45;;;;;;;17.73;12.15;;;19.00;99.90;;;;;;5073857;28;20571;-70
2022/09/25 08:15:13;;;;;;;13.65;8.40;;;19.10;99.90;;;;;;5077609;28;20048;-69
2022/09/25 08:17:41;;;;;;;27.67;10.65;;;19.10;99.90;;;;;;5074794;28;20128;-68
2022/09/25 08:20:09;;;;;;;15.60;9.05;;;19.30;99.90;;;;;;5085424;28;20091;-67
2022/09/25 08:22:37;;;;;;;12.32;7.43;;;19.30;99.90;;;;;;5078278;28;20098;-69
2022/09/25 08:25:06;;;;;;;12.68;8.70;;;19.40;99.90;;;;;;5081652;28;20398;-70
2022/09/25 08:27:38;;;;;;;13.20;10.02;;;19.70;99.90;;;;;;5073875;28;20048;-69
2022/09/25 08:30:07;;;;;;;10.65;8.52;;;20.00;99.90;;;;;;5078724;28;20442;-69
2022/09/25 08:32:35;;;;;;;15.65;10.50;;;20.20;99.90;;;;;;5076956;28;20491;-70
2022/09/25 08:35:02;;;;;;;11.45;8.32;;;20.30;99.90;;;;;;5075186;28;20037;-69
2022/09/25 08:37:31;;;;;;;9.27;6.40;;;20.20;99.90;;;;;;5079931;28;20098;-70
2022/09/25 08:39:58;;;;;;;14.73;10.07;;;20.10;99.90;;;;;;5088524;28;20402;-70
2022/09/25 08:42:31;;;;;;;14.40;10.23;;;20.00;99.90;;;;;;5087474;28;20131;-69
2022/09/25 08:50:33;;;;;;;11.77;7.32;;;20.30;99.90;;;;;;5074991;28;20107;-70
2022/09/25 08:53:06;;;;;;;11.13;6.90;;;20.50;99.90;;;;;;5076173;28;20091;-69
2022/09/25 08:58:24;;;;;;;13.15;8.05;;;20.60;99.90;;;;;;5075794;28;20429;-70
2022/09/25 09:00:54;;;;;;;13.15;8.15;;;20.50;99.90;;;;;;5063682;28;20072;-69
2022/09/25 09:03:24;;;;;;;13.98;8.52;;;20.60;99.90;;;;;;5075757;28;20048;-70
2022/09/25 09:05:57;;;;;;;17.77;10.45;;;20.70;99.90;;;;;;5073782;28;20040;-70
2022/09/25 09:08:28;;;;;;;14.23;8.18;;;20.60;99.90;;;;;;5074470;28;20071;-68
2022/09/25 09:11:00;;;;;;;14.05;9.25;;;20.40;99.90;;;;;;5073735;28;20060;-70
2022/09/25 09:13:35;;;;;;;12.75;8.23;;;20.40;99.90;;;;;;5066031;28;20044;-70
2022/09/25 09:16:08;;;;;;;10.23;6.97;;;20.50;99.90;;;;;;5055739;28;20046;-69
2022/09/25 09:18:38;;;;;;;10.98;7.15;;;20.20;99.90;;;;;;5073751;28;20043;-70
2022/09/25 09:21:13;;;;;;;10.30;6.50;;;20.20;99.90;;;;;;5085819;28;20055;-68
2022/09/25 09:23:51;;;;;;;13.33;9.57;;;20.20;99.90;;;;;;5085556;28;20074;-70
2022/09/25 09:26:24;;;;;;;12.68;7.90;;;20.10;99.90;;;;;;5092703;28;20490;-69
2022/09/25 09:29:17;;;;;;;9.55;6.20;;;20.40;99.90;;;;;;5088569;28;20119;-69
2022/09/25 09:31:55;;;;;;;10.93;6.88;;;20.30;99.90;;;;;;5090100;28;20094;-68
2022/09/25 09:34:56;;;;;;;11.35;7.38;;;20.40;99.90;;;;;;5092502;28;20495;-69
2022/09/25 09:37:33;;;;;;;12.43;7.43;;;20.20;99.90;;;;;;5093420;28;20052;-68
2022/09/25 09:40:18;;;;;;;11.82;7.80;;;20.50;99.90;;;;;;5084789;28;20411;-69
2022/09/25 09:42:55;;;;;;;11.48;7.50;;;20.60;99.90;;;;;;5074161;28;20480;-69
2022/09/25 09:45:31;;;;;;;11.15;8.15;;;20.90;99.90;;;;;;5073326;28;20070;-69
2022/09/25 09:48:06;;;;;;;14.55;8.15;;;21.20;99.90;;;;;;5058849;28;20044;-68
2022/09/25 09:50:41;;;;;;;12.45;8.55;;;21.40;99.90;;;;;;5075348;28;20043;-69
2022/09/25 09:53:26;;;;;;;15.10;8.40;;;21.70;99.90;;;;;;5078441;28;20032;-69
2022/09/25 09:55:58;;;;;;;21.05;15.15;;;21.50;99.90;;;;;;5094868;28;20040;-69
2022/09/25 09:58:31;;;;;;;10.85;6.72;;;21.30;99.90;;;;;;5089082;28;20459;-70
2022/09/25 10:01:01;;;;;;;11.20;7.93;;;21.50;99.90;;;;;;5074701;28;20045;-68
2022/09/25 10:03:32;;;;;;;30.63;18.88;;;21.50;99.90;;;;;;5073866;28;20036;-69
2022/09/25 10:06:03;;;;;;;29.52;18.23;;;21.70;98.90;;;;;;5073432;28;20473;-70
2022/09/25 10:08:30;;;;;;;20.13;12.43;;;21.70;97.30;;;;;;5073354;28;20105;-70
2022/09/25 10:10:58;;;;;;;14.50;9.30;;;21.70;96.60;;;;;;5072901;28;20464;-69
2022/09/25 10:13:31;;;;;;;21.13;12.15;;;21.70;95.40;;;;;;5073216;28;20075;-68
2022/09/25 10:16:03;;;;;;;14.68;9.93;;;21.90;95.70;;;;;;5073574;28;20396;-69
2022/09/25 10:18:36;;;;;;;12.00;7.53;;;22.20;95.60;;;;;;5066085;28;20044;-69
2022/09/25 10:21:10;;;;;;;12.43;6.18;;;22.10;95.90;;;;;;5073289;28;20388;-68
2022/09/25 10:23:40;;;;;;;12.10;8.40;;;22.20;95.50;;;;;;5054881;28;20158;-69
2022/09/25 10:26:23;;;;;;;11.02;6.32;;;22.40;94.90;;;;;;5055139;28;20484;-69
2022/09/25 10:28:51;;;;;;;11.35;6.90;;;22.20;95.30;;;;;;5077664;28;20053;-69
2022/09/25 10:31:21;;;;;;;13.57;7.38;;;22.30;95.30;;;;;;5092214;28;20036;-69
2022/09/25 10:34:01;;;;;;;10.05;7.05;;;22.30;95.50;;;;;;5094780;28;20093;-68
2022/09/25 10:36:35;;;;;;;13.50;8.48;;;22.10;95.30;;;;;;5085695;28;20032;-69
2022/09/25 10:39:04;;;;;;;15.15;8.45;;;21.70;95.80;;;;;;5077922;28;20059;-69
2022/09/25 10:41:42;;;;;;;14.77;9.60;;;21.50;95.90;;;;;;5101338;28;20067;-69
2022/09/25 10:44:22;;;;;;;14.27;8.63;;;21.40;96.90;;;;;;5096942;28;20062;-70
2022/09/25 10:52:48;;;;;;;12.65;8.10;;;21.90;96.90;;;;;;5099127;28;20067;-69
2022/09/25 10:55:27;;;;;;;10.95;6.88;;;22.20;96.00;;;;;;5108390;28;20079;-69
2022/09/25 10:58:05;;;;;;;13.00;9.50;;;22.10;95.90;;;;;;5099745;28;20114;-68
2022/09/25 11:00:41;;;;;;;12.55;8.43;;;22.00;96.30;;;;;;5088602;28;20104;-69
2022/09/25 11:03:21;;;;;;;14.25;8.13;;;22.00;96.50;;;;;;5088936;28;20123;-69
2022/09/25 11:05:53;;;;;;;14.00;9.45;;;22.00;96.90;;;;;;5102344;28;20044;-69
2022/09/25 11:08:23;;;;;;;10.63;7.75;;;22.30;96.90;;;;;;5080223;28;20098;-69
2022/09/25 11:10:55;;;;;;;13.77;7.90;;;22.60;96.10;;;;;;5098676;28;20097;-69
2022/09/25 11:13:26;;;;;;;14.35;9.35;;;22.50;95.50;;;;;;5098464;28;20062;-69
2022/09/25 11:15:58;;;;;;;15.27;9.52;;;22.60;95.50;;;;;;5097872;28;20048;-70
2022/09/25 11:18:43;;;;;;;11.07;5.55;;;22.50;95.10;;;;;;5110716;28;20050;-69
2022/09/25 11:21:27;;;;;;;7.47;4.40;;;22.20;94.30;;;;;;5101644;28;20202;-69
2022/09/25 11:24:13;;;;;;;8.93;6.03;;;21.80;94.80;;;;;;5098218;28;20410;-69
2022/09/25 11:26:46;;;;;;;9.00;5.53;;;21.90;95.00;;;;;;5078359;28;20040;-68
2022/09/25 11:29:20;;;;;;;7.18;4.93;;;21.90;95.60;;;;;;5102138;28;20051;-69
2022/09/25 11:31:52;;;;;;;9.25;6.22;;;21.80;95.10;;;;;;5103492;28;20131;-69
2022/09/25 11:34:32;;;;;;;8.07;6.53;;;22.00;95.50;;;;;;5101237;28;20044;-68
2022/09/25 11:37:06;;;;;;;11.80;8.85;;;22.20;95.70;;;;;;5098411;28;20039;-69
2022/09/25 11:42:33;;;;;;;8.20;4.53;;;22.60;96.00;;;;;;5096782;28;20048;-70
2022/09/25 11:45:08;;;;;;;9.90;7.10;;;22.50;95.20;;;;;;5096002;28;20059;-69
2022/09/25 11:47:42;;;;;;;11.93;7.15;;;22.70;95.00;;;;;;5096102;28;20078;-68
2022/09/25 11:50:16;;;;;;;7.68;6.47;;;22.90;95.10;;;;;;5095831;28;20040;-69
2022/09/25 11:52:54;;;;;;;10.88;7.28;;;22.70;95.70;;;;;;5095353;28;20280;-69
2022/09/25 11:55:48;;;;;;;10.98;7.03;;;22.40;95.90;;;;;;5082141;28;20044;-68
2022/09/25 11:58:32;;;;;;;10.35;6.90;;;22.20;97.00;;;;;;5072785;28;20091;-68
2022/09/25 12:01:06;;;;;;;10.38;6.65;;;22.10;97.40;;;;;;5061101;28;20514;-68
2022/09/25 12:03:47;;;;;;;14.35;8.68;;;22.10;97.20;;;;;;5085879;28;20041;-69
2022/09/25 12:06:52;;;;;;;6.97;5.15;;;22.20;97.60;;;;;;5063361;28;20040;-70
2022/09/25 12:09:39;;;;;;;9.63;5.90;;;21.90;96.40;;;;;;5095665;28;20050;-69
2022/09/25 12:12:16;;;;;;;11.80;5.72;;;21.80;96.80;;;;;;5091631;28;20036;-68
2022/09/25 12:14:51;;;;;;;10.93;7.10;;;21.80;97.10;;;;;;5079049;28;20044;-69
2022/09/25 12:17:27;;;;;;;11.27;6.60;;;21.70;97.60;;;;;;5086621;28;20044;-66
2022/09/25 12:20:03;;;;;;;12.48;6.85;;;21.60;97.70;;;;;;5094081;28;20292;-66
2022/09/25 12:22:47;;;;;;;10.15;6.72;;;21.50;98.40;;;;;;5092585;28;20044;-66
2022/09/25 12:25:24;;;;;;;11.00;6.88;;;21.40;98.80;;;;;;5086780;28;20068;-67
2022/09/25 12:27:59;;;;;;;11.48;7.80;;;21.30;98.80;;;;;;5090987;28;20043;-66
2022/09/25 12:30:32;;;;;;;;;;;21.30;99.50;;;;;;5078185;28;20063;-66
2022/09/25 12:33:24;;;;;;;12.63;8.25;;;21.20;99.80;;;;;;5078246;28;19928;-66
2022/09/25 12:35:58;;;;;;;12.13;7.55;;;21.10;99.90;;;;;;5100029;28;20127;-66
2022/09/25 12:38:40;;;;;;;11.23;7.65;;;20.90;99.90;;;;;;5070082;28;20075;-66
2022/09/25 12:41:15;;;;;;;11.68;7.88;;;20.80;99.90;;;;;;5091214;28;20036;-66
2022/09/25 12:43:47;;;;;;;12.30;8.75;;;20.90;99.90;;;;;;5086995;28;20105;-67
2022/09/25 12:46:22;;;;;;;13.88;8.45;;;21.00;99.90;;;;;;5077174;28;20086;-66
2022/09/25 12:48:53;;;;;;;11.82;8.15;;;21.10;99.90;;;;;;5094353;28;20036;-66
2022/09/25 12:51:24;;;;;;;12.82;9.05;;;21.20;99.90;;;;;;5086988;28;20037;-67
2022/09/25 12:53:57;;;;;;;11.95;8.65;;;21.10;99.90;;;;;;5073884;28;20059;-67
2022/09/25 12:56:29;;;;;;;12.45;8.82;;;21.10;99.90;;;;;;5070049;28;20048;-68
2022/09/25 12:59:02;;;;;;;15.07;10.27;;;21.20;99.90;;;;;;5092621;28;20094;-69
2022/09/25 13:01:37;;;;;;;18.25;13.43;;;21.40;99.90;;;;;;5086028;28;20048;-66
2022/09/25 13:04:18;;;;;;;23.48;14.77;;;21.40;99.90;;;;;;5082546;28;20041;-67
2022/09/25 13:06:51;;;;;;;29.35;17.25;;;21.40;99.90;;;;;;5093626;28;20047;-65
2022/09/25 13:09:30;;;;;;;30.90;17.85;;;21.40;99.90;;;;;;5094682;28;20062;-66
2022/09/25 13:12:02;;;;;;;25.67;17.15;;;21.50;99.90;;;;;;5092120;28;20036;-65
2022/09/25 13:14:34;;;;;;;26.27;17.63;;;21.50;99.90;;;;;;5056047;28;20044;-65
2022/09/25 13:17:02;;;;;;;22.20;13.45;;;21.60;99.90;;;;;;5075346;28;20054;-66
2022/09/25 13:19:31;;;;;;;23.02;15.57;;;21.70;99.90;;;;;;5093454;28;20118;-66
2022/09/25 13:22:02;;;;;;;18.27;11.68;;;22.00;99.90;;;;;;5094009;28;20100;-65
2022/09/25 13:24:39;;;;;;;14.75;9.88;;;22.20;99.90;;;;;;5085013;28;20087;-65
2022/09/25 13:27:11;;;;;;;16.42;11.27;;;22.30;99.90;;;;;;5074807;28;20056;-66